Time;durP1;ratioP1;P1;durP2;ratioP2;P2;SDS_P1;SDS_P2;PMS_P1;PMS_P2;Temp;Humidity;BMP_temperature;BMP_pressure;BME280_temperature;BME280_humidity;BME280_pressure;Samples;Min_cycle;Max_cycle;Signal;HPM_P1;HPM_P2
2022/05/13 00:02:09;;;;;;;9.93;3.05;;;;;;;;;;5017831;28;20037;-74
2022/05/13 00:04:35;;;;;;;11.88;3.05;;;;;;;;;;5019981;28;20356;-74
2022/05/13 00:07:02;;;;;;;10.73;2.85;;;;;;;;;;5015504;28;20045;-74
2022/05/13 00:12:13;;;;;;;9.52;3.42;;;;;;;;;;5019359;28;20056;-74
2022/05/13 00:14:40;;;;;;;12.25;3.10;;;;;;;;;;5011635;28;20034;-75
2022/05/13 00:17:06;;;;;;;10.00;2.85;;;;;;;;;;5018322;28;20059;-74
2022/05/13 00:19:32;;;;;;;5.40;2.33;;;;;;;;;;5012392;28;20024;-75
2022/05/13 00:21:58;;;;;;;7.22;2.97;;;;;;;;;;5012354;28;20120;-74
2022/05/13 00:24:24;;;;;;;7.15;2.28;;;;;;;;;;5018049;28;20041;-75
2022/05/13 00:26:50;;;;;;;8.73;2.92;;;;;;;;;;5015566;28;20404;-75
2022/05/13 00:29:16;;;;;;;8.90;3.17;;;;;;;;;;5015451;28;20030;-74
2022/05/13 00:31:42;;;;;;;14.43;3.10;;;;;;;;;;5013418;28;20046;-75
2022/05/13 00:34:09;;;;;;;10.68;3.20;;;;;;;;;;5019630;28;20029;-74
2022/05/13 00:36:35;;;;;;;13.32;3.90;;;;;;;;;;5015570;28;20041;-75
2022/05/13 00:39:02;;;;;;;11.10;3.25;;;;;;;;;;5015687;28;20025;-75
2022/05/13 00:41:28;;;;;;;12.38;3.38;;;;;;;;;;5014748;28;20531;-75
2022/05/13 00:43:54;;;;;;;12.93;3.38;;;;;;;;;;5016176;28;20033;-75
2022/05/13 00:46:21;;;;;;;9.32;3.28;;;;;;;;;;5014594;28;20041;-75
2022/05/13 00:48:47;;;;;;;8.85;2.83;;;;;;;;;;5017600;28;20052;-74
2022/05/13 00:51:15;;;;;;;7.60;2.85;;;;;;;;;;5015416;28;20045;-74
2022/05/13 00:53:41;;;;;;;9.77;3.05;;;;;;;;;;5014808;28;20662;-74
2022/05/13 00:56:07;;;;;;;6.32;2.55;;;;;;;;;;5017425;28;20045;-74
2022/05/13 00:58:35;;;;;;;11.43;3.10;;;;;;;;;;5011525;28;20040;-75
2022/05/13 01:01:01;;;;;;;7.60;2.75;;;;;;;;;;5015918;28;20528;-75
2022/05/13 01:03:27;;;;;;;11.73;3.20;;;;;;;;;;5018152;28;20026;-74
2022/05/13 01:05:55;;;;;;;9.25;3.45;;;;;;;;;;5018419;28;20037;-74
2022/05/13 01:08:22;;;;;;;11.85;4.10;;;;;;;;;;5016824;28;20037;-75
2022/05/13 01:10:48;;;;;;;11.52;3.72;;;;;;;;;;5015363;28;20045;-75
2022/05/13 01:13:22;;;;;;;9.32;3.50;;;;;;;;;;5010357;28;20463;-75
2022/05/13 01:15:49;;;;;;;12.65;3.45;;;;;;;;;;5016262;28;20785;-75
2022/05/13 01:18:24;;;;;;;10.68;3.67;;;;;;;;;;5016344;28;20026;-74
2022/05/13 01:20:50;;;;;;;8.55;3.50;;;;;;;;;;5015975;28;20088;-74
2022/05/13 01:23:19;;;;;;;10.60;3.42;;;;;;;;;;5018021;28;20068;-74
2022/05/13 01:25:48;;;;;;;13.73;3.17;;;;;;;;;;5011389;28;20062;-75
2022/05/13 01:28:16;;;;;;;9.00;3.35;;;;;;;;;;5015967;28;20506;-74
2022/05/13 01:30:44;;;;;;;8.00;3.13;;;;;;;;;;5018754;28;20061;-74
2022/05/13 01:33:11;;;;;;;13.55;3.13;;;;;;;;;;5019224;28;20037;-74
2022/05/13 01:35:44;;;;;;;8.55;2.88;;;;;;;;;;5020801;28;20120;-75
2022/05/13 01:38:11;;;;;;;19.00;4.13;;;;;;;;;;5013019;28;20037;-74
2022/05/13 01:40:37;;;;;;;10.40;3.63;;;;;;;;;;5019120;28;20030;-74
2022/05/13 01:43:03;;;;;;;12.40;4.57;;;;;;;;;;5015180;28;20030;-75
2022/05/13 01:45:29;;;;;;;14.68;4.40;;;;;;;;;;5017988;28;20037;-74
2022/05/13 01:47:55;;;;;;;17.67;5.35;;;;;;;;;;5021711;28;20025;-74
2022/05/13 01:50:23;;;;;;;9.93;3.70;;;;;;;;;;5022191;28;20136;-75
2022/05/13 01:52:49;;;;;;;13.80;3.75;;;;;;;;;;5019676;28;20030;-75
2022/05/13 01:55:15;;;;;;;13.68;4.20;;;;;;;;;;5016899;28;20030;-75
2022/05/13 01:57:41;;;;;;;10.48;3.90;;;;;;;;;;5018010;28;20502;-74
2022/05/13 02:00:07;;;;;;;12.07;3.80;;;;;;;;;;5016875;28;20037;-74
2022/05/13 02:03:44;;;;;;;8.75;4.00;;;;;;;;;;5017987;28;20037;-74
2022/05/13 02:05:22;;;;;;;9.40;3.47;;;;;;;;;;5015192;28;20034;-74
2022/05/13 02:07:48;;;;;;;12.80;3.67;;;;;;;;;;5017883;28;20029;-74
2022/05/13 02:10:14;;;;;;;9.43;3.10;;;;;;;;;;5019699;28;20046;-74
2022/05/13 02:12:40;;;;;;;8.30;3.38;;;;;;;;;;5020675;28;20037;-74
2022/05/13 02:15:07;;;;;;;11.48;2.92;;;;;;;;;;5018355;28;20079;-74
2022/05/13 02:17:33;;;;;;;9.60;3.30;;;;;;;;;;5018074;28;20392;-74
2022/05/13 02:19:59;;;;;;;17.20;3.30;;;;;;;;;;5018104;28;20096;-74
2022/05/13 02:22:25;;;;;;;13.57;4.43;;;;;;;;;;5023707;28;20051;-75
2022/05/13 02:24:51;;;;;;;8.90;3.90;;;;;;;;;;5019716;28;20026;-75
2022/05/13 02:27:17;;;;;;;10.90;3.67;;;;;;;;;;5016534;28;20092;-74
2022/05/13 02:29:43;;;;;;;14.65;4.50;;;;;;;;;;5021801;28;20068;-74
2022/05/13 02:32:09;;;;;;;15.10;4.90;;;;;;;;;;5017566;28;20041;-75
2022/05/13 02:34:36;;;;;;;16.65;5.38;;;;;;;;;;5022084;28;20030;-75
2022/05/13 02:37:03;;;;;;;14.13;4.78;;;;;;;;;;5020239;28;20034;-74
2022/05/13 02:39:29;;;;;;;13.88;5.15;;;;;;;;;;5015653;28;20025;-74
2022/05/13 02:41:55;;;;;;;17.17;5.75;;;;;;;;;;5015428;28;20115;-74
2022/05/13 02:44:21;;;;;;;12.35;5.68;;;;;;;;;;5020826;28;20744;-74
2022/05/13 02:46:47;;;;;;;15.60;5.88;;;;;;;;;;5016497;28;20072;-75
2022/05/13 02:49:14;;;;;;;13.25;5.45;;;;;;;;;;5019808;28;20037;-75
2022/05/13 02:51:40;;;;;;;19.83;5.93;;;;;;;;;;5020275;28;20518;-75
2022/05/13 02:54:07;;;;;;;13.48;6.57;;;;;;;;;;5020598;28;20038;-75
2022/05/13 02:56:33;;;;;;;20.38;7.97;;;;;;;;;;5019190;28;20043;-74
2022/05/13 02:58:59;;;;;;;18.73;7.13;;;;;;;;;;5012890;28;20751;-74
2022/05/13 03:01:26;;;;;;;11.90;6.90;;;;;;;;;;5016189;28;20038;-75
2022/05/13 03:03:52;;;;;;;18.25;7.10;;;;;;;;;;5021145;28;20409;-75
2022/05/13 03:06:19;;;;;;;13.45;6.38;;;;;;;;;;5020587;28;20120;-75
2022/05/13 03:08:45;;;;;;;13.18;6.18;;;;;;;;;;5020009;28;20072;-75
2022/05/13 03:11:12;;;;;;;15.88;7.43;;;;;;;;;;5015589;28;20072;-74
2022/05/13 03:13:38;;;;;;;20.67;6.60;;;;;;;;;;5018479;28;20125;-75
2022/05/13 03:16:06;;;;;;;18.52;7.20;;;;;;;;;;5015402;28;20934;-75
2022/05/13 03:18:32;;;;;;;14.77;6.40;;;;;;;;;;5015945;28;20021;-75
2022/05/13 03:20:58;;;;;;;12.07;5.78;;;;;;;;;;5018768;28;20055;-74
2022/05/13 03:23:24;;;;;;;18.55;5.47;;;;;;;;;;5012861;28;20041;-74
2022/05/13 03:25:50;;;;;;;16.92;5.95;;;;;;;;;;5018990;28;20054;-74
2022/05/13 03:28:16;;;;;;;16.42;5.35;;;;;;;;;;5016072;28;20033;-75
2022/05/13 03:30:43;;;;;;;11.30;4.20;;;;;;;;;;5011184;28;20037;-75
2022/05/13 03:33:09;;;;;;;13.05;5.03;;;;;;;;;;5019319;28;20035;-74
2022/05/13 03:35:35;;;;;;;13.50;5.00;;;;;;;;;;5018757;28;20059;-75
2022/05/13 03:38:01;;;;;;;9.20;3.97;;;;;;;;;;5016093;28;20452;-74
2022/05/13 03:40:27;;;;;;;11.88;4.38;;;;;;;;;;5015113;28;20062;-75
2022/05/13 03:42:54;;;;;;;13.55;5.75;;;;;;;;;;5016354;28;20112;-74
2022/05/13 03:45:20;;;;;;;12.98;6.28;;;;;;;;;;5019723;28;20419;-75
2022/05/13 03:47:49;;;;;;;16.63;7.03;;;;;;;;;;5020423;28;20490;-74
2022/05/13 03:50:15;;;;;;;12.68;6.00;;;;;;;;;;5020818;28;20042;-74
2022/05/13 03:52:42;;;;;;;11.43;3.55;;;;;;;;;;5014786;28;20060;-74
2022/05/13 03:55:08;;;;;;;9.77;2.90;;;;;;;;;;5013003;28;20049;-75
2022/05/13 03:57:34;;;;;;;10.32;2.80;;;;;;;;;;5015180;28;20029;-75
2022/05/13 04:00:00;;;;;;;13.90;3.70;;;;;;;;;;5017516;28;20036;-74
2022/05/13 04:02:27;;;;;;;15.23;4.82;;;;;;;;;;5019554;28;20030;-74
2022/05/13 04:10:22;;;;;;;20.33;5.20;;;;;;;;;;5017299;28;20065;-74
2022/05/13 04:18:17;;;;;;;10.65;3.83;;;;;;;;;;5012830;28;20092;-74
2022/05/13 04:20:43;;;;;;;8.77;2.97;;;;;;;;;;5015341;28;20060;-74
2022/05/13 04:23:09;;;;;;;10.65;2.55;;;;;;;;;;5017632;28;20026;-74
2022/05/13 04:25:35;;;;;;;12.63;3.70;;;;;;;;;;5020385;28;20431;-74
2022/05/13 04:28:01;;;;;;;9.45;3.28;;;;;;;;;;5021323;28;20517;-74
2022/05/13 04:30:27;;;;;;;13.25;4.30;;;;;;;;;;5017251;28;20038;-74
2022/05/13 04:32:53;;;;;;;10.18;4.15;;;;;;;;;;5012516;28;20034;-75
2022/05/13 04:35:19;;;;;;;11.05;3.67;;;;;;;;;;5016737;28;20434;-74
2022/05/13 04:37:45;;;;;;;16.42;4.40;;;;;;;;;;5016736;28;20109;-75
2022/05/13 04:40:12;;;;;;;10.18;4.22;;;;;;;;;;5015658;28;20045;-74
2022/05/13 04:42:50;;;;;;;12.07;4.60;;;;;;;;;;5017847;28;20041;-74
2022/05/13 04:45:17;;;;;;;13.98;6.00;;;;;;;;;;5009757;28;20111;-74
2022/05/13 04:50:28;;;;;;;15.88;6.47;;;;;;;;;;5012147;28;20060;-74
2022/05/13 04:52:54;;;;;;;14.93;6.50;;;;;;;;;;5009668;28;20038;-75
2022/05/13 04:55:20;;;;;;;15.48;6.30;;;;;;;;;;5015509;28;20099;-75
2022/05/13 04:57:46;;;;;;;15.38;6.60;;;;;;;;;;5021829;28;20795;-74
2022/05/13 05:00:12;;;;;;;15.63;5.95;;;;;;;;;;5012223;28;20072;-74
2022/05/13 05:02:38;;;;;;;16.02;6.38;;;;;;;;;;5016551;28;20502;-75
2022/05/13 05:05:04;;;;;;;10.20;5.53;;;;;;;;;;5014607;28;20042;-74
2022/05/13 05:07:30;;;;;;;14.73;5.90;;;;;;;;;;5016034;28;20076;-74
2022/05/13 05:09:57;;;;;;;14.93;6.18;;;;;;;;;;5014235;28;20080;-74
2022/05/13 05:12:23;;;;;;;11.82;5.20;;;;;;;;;;5013267;28;20029;-74
2022/05/13 05:14:49;;;;;;;14.65;5.75;;;;;;;;;;5020543;28;20473;-74
2022/05/13 05:17:15;;;;;;;13.68;5.07;;;;;;;;;;5004999;28;20043;-74
2022/05/13 05:19:41;;;;;;;17.17;5.32;;;;;;;;;;5009913;28;20061;-75
2022/05/13 05:22:07;;;;;;;13.65;4.43;;;;;;;;;;5016884;28;20022;-74
2022/05/13 05:24:33;;;;;;;17.48;5.30;;;;;;;;;;5012023;28;20022;-74
2022/05/13 05:26:59;;;;;;;11.70;4.38;;;;;;;;;;5014361;28;20116;-74
2022/05/13 05:29:25;;;;;;;9.68;3.70;;;;;;;;;;5013300;28;20056;-75
2022/05/13 05:31:51;;;;;;;14.35;4.82;;;;;;;;;;5012339;28;20037;-74
2022/05/13 05:34:18;;;;;;;18.30;5.30;;;;;;;;;;5015163;28;20030;-74
2022/05/13 05:36:44;;;;;;;13.88;5.40;;;;;;;;;;5015595;28;20034;-75
2022/05/13 05:39:10;;;;;;;13.98;4.93;;;;;;;;;;5009646;28;20038;-74
2022/05/13 05:41:36;;;;;;;16.67;5.90;;;;;;;;;;5012950;28;20429;-74
2022/05/13 05:44:02;;;;;;;19.67;6.25;;;;;;;;;;5011415;28;20129;-73
2022/05/13 05:46:28;;;;;;;16.60;6.78;;;;;;;;;;5016037;28;20426;-74
2022/05/13 05:48:54;;;;;;;16.65;5.38;;;;;;;;;;5013836;28;20487;-74
2022/05/13 05:51:20;;;;;;;18.75;5.53;;;;;;;;;;5014867;28;20057;-74
2022/05/13 05:59:16;;;;;;;10.98;4.68;;;;;;;;;;5011765;28;20205;-74
2022/05/13 06:01:42;;;;;;;14.77;4.68;;;;;;;;;;5013433;28;20066;-74
2022/05/13 06:04:08;;;;;;;13.88;4.45;;;;;;;;;;5008704;28;20038;-75
2022/05/13 06:06:34;;;;;;;13.95;4.95;;;;;;;;;;5017646;28;20048;-75
2022/05/13 06:09:00;;;;;;;12.68;4.00;;;;;;;;;;5013922;28;20064;-75
2022/05/13 06:11:26;;;;;;;13.30;4.82;;;;;;;;;;5015247;28;20069;-75
2022/05/13 06:13:56;;;;;;;14.50;4.05;;;;;;;;;;5012638;28;20033;-74
2022/05/13 06:16:23;;;;;;;11.57;4.00;;;;;;;;;;5003052;28;20045;-75
2022/05/13 06:18:49;;;;;;;11.63;4.40;;;;;;;;;;5006803;28;20026;-75
2022/05/13 06:21:15;;;;;;;12.48;4.20;;;;;;;;;;5013111;28;20121;-75
2022/05/13 06:23:41;;;;;;;10.32;3.63;;;;;;;;;;5013010;28;20090;-75
2022/05/13 06:26:07;;;;;;;11.30;3.97;;;;;;;;;;5015373;28;20072;-75
2022/05/13 06:28:34;;;;;;;15.90;3.75;;;;;;;;;;5015723;28;20033;-74
2022/05/13 06:31:00;;;;;;;11.93;4.22;;;;;;;;;;5018806;28;20091;-75
2022/05/13 06:33:26;;;;;;;9.10;3.63;;;;;;;;;;5018552;28;20045;-74
2022/05/13 06:35:52;;;;;;;9.32;3.75;;;;;;;;;;5010342;28;20042;-74
2022/05/13 06:38:23;;;;;;;13.30;3.72;;;;;;;;;;5017378;28;20323;-75
2022/05/13 06:40:49;;;;;;;10.63;3.53;;;;;;;;;;5009002;28;20030;-74
2022/05/13 06:43:15;;;;;;;8.23;3.85;;;;;;;;;;5007635;28;20112;-75
2022/05/13 06:45:41;;;;;;;10.00;3.55;;;;;;;;;;5012077;28;20041;-74
2022/05/13 06:48:08;;;;;;;9.82;3.58;;;;;;;;;;5011985;28;20033;-74
2022/05/13 06:50:34;;;;;;;8.07;2.97;;;;;;;;;;5011576;28;20046;-75
2022/05/13 06:53:00;;;;;;;10.18;3.33;;;;;;;;;;5016911;28;20447;-74
2022/05/13 06:55:26;;;;;;;10.82;3.00;;;;;;;;;;5016622;28;20378;-75
2022/05/13 06:57:52;;;;;;;12.68;3.17;;;;;;;;;;5013713;28;20029;-74
2022/05/13 07:00:18;;;;;;;14.57;3.72;;;;;;;;;;5011007;28;20041;-74
2022/05/13 07:02:44;;;;;;;6.75;3.03;;;;;;;;;;5012445;28;20100;-75
2022/05/13 07:05:11;;;;;;;8.35;2.92;;;;;;;;;;5017056;28;20060;-74
2022/05/13 07:07:37;;;;;;;7.93;3.05;;;;;;;;;;5013294;28;20080;-75
2022/05/13 07:10:04;;;;;;;11.90;3.53;;;;;;;;;;5007910;28;20069;-74
2022/05/13 07:12:31;;;;;;;9.90;3.20;;;;;;;;;;5013532;28;20410;-75
2022/05/13 07:14:57;;;;;;;10.43;3.97;;;;;;;;;;5014320;28;20079;-74
2022/05/13 07:17:23;;;;;;;9.25;3.20;;;;;;;;;;5012710;28;20117;-75
2022/05/13 07:19:49;;;;;;;11.43;4.35;;;;;;;;;;5007083;28;20034;-74
2022/05/13 07:22:15;;;;;;;10.55;4.50;;;;;;;;;;5011563;28;20304;-74
2022/05/13 07:24:41;;;;;;;9.43;3.78;;;;;;;;;;5012280;28;20546;-74
2022/05/13 07:27:07;;;;;;;12.57;4.07;;;;;;;;;;5010167;28;20160;-75
2022/05/13 07:29:33;;;;;;;13.52;3.70;;;;;;;;;;5012482;28;20574;-75
2022/05/13 07:31:59;;;;;;;12.57;4.07;;;;;;;;;;5014083;28;20045;-74
2022/05/13 07:34:25;;;;;;;15.95;4.00;;;;;;;;;;5012639;28;20029;-74
2022/05/13 07:36:54;;;;;;;11.88;3.50;;;;;;;;;;5013816;28;20041;-74
2022/05/13 07:42:07;;;;;;;17.23;4.10;;;;;;;;;;5005409;28;20044;-74
2022/05/13 07:44:34;;;;;;;12.68;4.40;;;;;;;;;;5010950;28;20036;-75
2022/05/13 07:47:00;;;;;;;13.05;3.75;;;;;;;;;;5011198;28;20044;-75
2022/05/13 07:49:26;;;;;;;14.63;3.60;;;;;;;;;;5017522;28;20869;-74
2022/05/13 07:51:52;;;;;;;18.80;3.83;;;;;;;;;;5010000;28;20104;-75
2022/05/13 07:54:18;;;;;;;15.18;3.70;;;;;;;;;;5007234;28;20045;-75
2022/05/13 07:56:44;;;;;;;13.20;3.80;;;;;;;;;;5012609;28;20044;-75
2022/05/13 07:59:10;;;;;;;13.27;3.92;;;;;;;;;;5014201;28;20072;-74
2022/05/13 08:01:36;;;;;;;10.10;3.50;;;;;;;;;;5010981;28;20037;-74
2022/05/13 08:04:03;;;;;;;10.02;3.38;;;;;;;;;;5010979;28;20084;-74
2022/05/13 08:06:29;;;;;;;13.15;4.03;;;;;;;;;;5008667;28;20105;-75
2022/05/13 08:08:56;;;;;;;12.50;3.88;;;;;;;;;;5010936;28;20053;-75
2022/05/13 08:11:22;;;;;;;10.15;3.80;;;;;;;;;;5009417;28;20033;-75
2022/05/13 08:13:49;;;;;;;14.57;3.60;;;;;;;;;;5010926;28;20391;-74
2022/05/13 08:16:17;;;;;;;14.45;3.10;;;;;;;;;;5008063;28;20140;-75
2022/05/13 08:18:43;;;;;;;12.77;3.20;;;;;;;;;;5012646;28;20515;-74
2022/05/13 08:21:10;;;;;;;13.23;3.03;;;;;;;;;;5012099;28;20044;-75
2022/05/13 08:23:36;;;;;;;14.35;3.58;;;;;;;;;;5013953;28;20029;-74
2022/05/13 08:26:02;;;;;;;10.07;3.33;;;;;;;;;;5015661;28;20057;-75
2022/05/13 08:28:29;;;;;;;10.63;4.40;;;;;;;;;;5014381;28;20105;-74
2022/05/13 08:30:55;;;;;;;10.40;3.83;;;;;;;;;;5009426;28;20050;-74
2022/05/13 08:33:21;;;;;;;16.92;3.33;;;;;;;;;;5013684;28;20034;-75
2022/05/13 08:35:49;;;;;;;10.80;3.55;;;;;;;;;;5006906;28;20034;-74
2022/05/13 08:38:16;;;;;;;10.68;3.58;;;;;;;;;;5005546;28;20038;-74
2022/05/13 08:40:53;;;;;;;9.30;3.15;;;;;;;;;;5010637;28;20046;-74
2022/05/13 08:43:23;;;;;;;9.95;2.90;;;;;;;;;;5006206;28;20040;-74
2022/05/13 08:45:52;;;;;;;14.88;3.58;;;;;;;;;;5008175;28;20804;-74
2022/05/13 08:48:20;;;;;;;9.90;3.20;;;;;;;;;;5013021;28;20494;-74
2022/05/13 08:51:01;;;;;;;10.02;2.97;;;;;;;;;;5007498;28;20065;-75
2022/05/13 08:53:32;;;;;;;7.53;2.78;;;;;;;;;;5009943;28;20136;-74
2022/05/13 08:56:04;;;;;;;8.90;2.40;;;;;;;;;;5006799;28;20049;-74
2022/05/13 08:58:53;;;;;;;9.75;2.42;;;;;;;;;;5011792;28;20021;-74
2022/05/13 09:01:31;;;;;;;10.30;1.58;;;;;;;;;;4977474;28;20184;-75
2022/05/13 09:04:01;;;;;;;7.55;2.03;;;;;;;;;;5006165;28;20547;-75
2022/05/13 09:06:37;;;;;;;5.70;1.50;;;;;;;;;;5010202;28;20041;-75
2022/05/13 09:09:04;;;;;;;8.10;2.15;;;;;;;;;;5011631;28;20034;-75
2022/05/13 09:11:32;;;;;;;10.05;1.95;;;;;;;;;;5011686;28;20046;-75
2022/05/13 09:13:59;;;;;;;5.90;1.60;;;;;;;;;;5012385;28;20030;-75
2022/05/13 09:16:48;;;;;;;12.15;2.80;;;;;;;;;;5005974;28;20595;-75
2022/05/13 09:19:18;;;;;;;7.72;2.30;;;;;;;;;;5007924;28;20069;-75
2022/05/13 09:21:45;;;;;;;10.85;2.72;;;;;;;;;;5011594;28;20145;-75
2022/05/13 09:24:11;;;;;;;8.93;2.50;;;;;;;;;;5012285;28;20033;-75
2022/05/13 09:26:42;;;;;;;10.35;2.65;;;;;;;;;;5007029;28;20065;-75
2022/05/13 09:29:19;;;;;;;12.77;3.05;;;;;;;;;;5016307;28;20475;-75
2022/05/13 09:32:06;;;;;;;9.32;2.50;;;;;;;;;;5006882;28;20764;-74
2022/05/13 09:34:55;;;;;;;8.75;2.40;;;;;;;;;;5009570;28;20030;-75
2022/05/13 09:37:23;;;;;;;5.07;1.85;;;;;;;;;;5008860;28;20045;-75
2022/05/13 09:40:03;;;;;;;6.47;2.40;;;;;;;;;;5005674;28;20376;-75
2022/05/13 09:42:41;;;;;;;6.97;1.92;;;;;;;;;;5006969;28;20112;-75
2022/05/13 09:45:19;;;;;;;5.85;1.75;;;;;;;;;;5012770;28;20034;-75
2022/05/13 09:47:46;;;;;;;5.68;1.70;;;;;;;;;;5010147;28;20033;-75
2022/05/13 09:50:25;;;;;;;10.27;2.08;;;;;;;;;;5012656;28;20041;-74
2022/05/13 09:52:52;;;;;;;10.20;2.10;;;;;;;;;;5009091;28;20072;-75
2022/05/13 09:55:24;;;;;;;7.97;2.05;;;;;;;;;;5015576;28;20040;-75
2022/05/13 09:57:51;;;;;;;7.75;1.42;;;;;;;;;;5009029;28;20085;-75
2022/05/13 10:00:23;;;;;;;9.10;1.80;;;;;;;;;;5013396;28;20037;-75
2022/05/13 10:02:50;;;;;;;7.38;2.00;;;;;;;;;;5010430;28;20413;-74
2022/05/13 10:05:16;;;;;;;11.00;2.17;;;;;;;;;;5009483;28;20026;-75
2022/05/13 10:07:54;;;;;;;6.43;1.70;;;;;;;;;;5012102;28;20033;-75
2022/05/13 10:16:08;;;;;;;6.97;1.65;;;;;;;;;;5017443;28;20100;-74
2022/05/13 10:18:46;;;;;;;6.95;1.73;;;;;;;;;;5013614;28;20040;-75
2022/05/13 10:21:14;;;;;;;7.00;1.70;;;;;;;;;;5006118;28;20105;-74
2022/05/13 10:23:43;;;;;;;6.47;1.50;;;;;;;;;;5012450;28;20793;-74
2022/05/13 10:26:11;;;;;;;8.63;1.83;;;;;;;;;;5016315;28;20054;-75
2022/05/13 10:28:56;;;;;;;9.00;1.90;;;;;;;;;;5009622;28;20109;-75
2022/05/13 10:31:25;;;;;;;7.85;1.33;;;;;;;;;;5008453;28;20037;-74
2022/05/13 10:33:51;;;;;;;11.15;2.25;;;;;;;;;;5014754;28;20065;-74
2022/05/13 10:36:17;;;;;;;7.97;1.77;;;;;;;;;;5009904;28;20184;-74
2022/05/13 10:38:46;;;;;;;6.38;1.40;;;;;;;;;;5011477;28;20030;-75
2022/05/13 10:41:12;;;;;;;6.55;1.60;;;;;;;;;;5012496;28;20037;-75
2022/05/13 10:43:41;;;;;;;8.57;2.05;;;;;;;;;;5017141;28;20083;-75
2022/05/13 10:46:33;;;;;;;5.50;1.60;;;;;;;;;;5013260;28;20037;-75
2022/05/13 10:48:59;;;;;;;9.25;1.90;;;;;;;;;;5007621;28;20396;-75
2022/05/13 10:51:30;;;;;;;10.27;1.92;;;;;;;;;;5015365;28;20069;-74
2022/05/13 10:54:14;;;;;;;5.25;1.40;;;;;;;;;;5013777;28;20114;-74
2022/05/13 10:56:54;;;;;;;10.25;1.70;;;;;;;;;;5014423;28;20088;-75
2022/05/13 10:59:39;;;;;;;5.22;1.38;;;;;;;;;;5009209;28;20121;-75
2022/05/13 11:02:05;;;;;;;10.48;1.67;;;;;;;;;;4996845;28;20034;-75
2022/05/13 11:04:34;;;;;;;7.85;1.83;;;;;;;;;;5009867;28;20044;-74
2022/05/13 11:07:07;;;;;;;8.60;1.60;;;;;;;;;;5013333;28;20072;-75
2022/05/13 11:09:36;;;;;;;8.13;1.50;;;;;;;;;;5011822;28;20427;-75
2022/05/13 11:12:10;;;;;;;12.18;1.60;;;;;;;;;;5013835;28;20776;-75
2022/05/13 11:14:45;;;;;;;7.28;2.00;;;;;;;;;;5007904;28;20124;-74
2022/05/13 11:17:33;;;;;;;7.97;1.73;;;;;;;;;;5015333;28;20080;-74
2022/05/13 11:20:17;;;;;;;8.02;1.67;;;;;;;;;;5013497;28;20063;-74
2022/05/13 11:23:21;;;;;;;8.07;2.05;;;;;;;;;;5010922;28;20116;-74
2022/05/13 11:26:05;;;;;;;8.27;1.58;;;;;;;;;;4950058;28;20153;-74
2022/05/13 11:28:40;;;;;;;7.47;1.58;;;;;;;;;;4951702;28;20591;-75
2022/05/13 11:31:07;;;;;;;7.68;1.45;;;;;;;;;;4988987;28;20054;-75
2022/05/13 11:33:53;;;;;;;7.38;1.55;;;;;;;;;;5010973;28;20025;-74
2022/05/13 11:36:29;;;;;;;6.97;1.63;;;;;;;;;;5012194;28;20435;-75
2022/05/13 11:39:13;;;;;;;7.90;2.05;;;;;;;;;;5011866;28;20096;-75
2022/05/13 11:41:48;;;;;;;7.65;1.35;;;;;;;;;;5016801;28;20418;-75
2022/05/13 11:44:17;;;;;;;9.95;1.45;;;;;;;;;;5009019;28;20029;-75
2022/05/13 11:46:59;;;;;;;7.30;1.38;;;;;;;;;;5014248;28;20179;-75
2022/05/13 11:49:30;;;;;;;6.60;1.55;;;;;;;;;;5012467;28;20034;-75
2022/05/13 11:51:57;;;;;;;6.57;1.83;;;;;;;;;;5016563;28;20535;-75
2022/05/13 11:54:25;;;;;;;6.22;1.38;;;;;;;;;;5012772;28;20276;-74
2022/05/13 11:57:11;;;;;;;10.27;1.50;;;;;;;;;;5008801;28;20038;-75
2022/05/13 11:59:43;;;;;;;6.43;1.35;;;;;;;;;;5011459;28;20552;-75
2022/05/13 12:02:12;;;;;;;9.55;1.45;;;;;;;;;;5011156;28;20779;-75
2022/05/13 12:04:40;;;;;;;7.22;1.55;;;;;;;;;;5007969;28;20460;-75
2022/05/13 12:07:25;;;;;;;8.55;1.50;;;;;;;;;;5011889;28;20047;-75
2022/05/13 12:09:54;;;;;;;7.40;1.33;;;;;;;;;;5014387;28;20116;-75
2022/05/13 12:12:26;;;;;;;6.35;1.30;;;;;;;;;;5007419;28;20030;-74
2022/05/13 12:15:15;;;;;;;5.93;1.13;;;;;;;;;;5007332;28;20045;-75
2022/05/13 12:17:47;;;;;;;6.93;1.52;;;;;;;;;;5001224;28;20054;-75
2022/05/13 12:20:32;;;;;;;10.02;1.73;;;;;;;;;;5008920;28;20511;-75
2022/05/13 12:23:21;;;;;;;6.20;1.40;;;;;;;;;;5008801;28;20475;-75
2022/05/13 12:25:53;;;;;;;8.70;1.08;;;;;;;;;;5008037;28;20139;-75
2022/05/13 12:28:18;;;;;;;10.15;1.48;;;;;;;;;;5008508;28;20038;-75
2022/05/13 12:30:46;;;;;;;7.18;1.50;;;;;;;;;;5007445;28;20042;-75
2022/05/13 12:33:23;;;;;;;6.00;1.45;;;;;;;;;;5013742;28;20049;-74
2022/05/13 12:38:56;;;;;;;7.75;1.30;;;;;;;;;;5009287;28;20684;-75
2022/05/13 12:41:24;;;;;;;6.93;1.45;;;;;;;;;;5003857;28;20503;-75
2022/05/13 12:43:55;;;;;;;6.05;1.60;;;;;;;;;;5014226;28;20026;-75
2022/05/13 12:46:40;;;;;;;9.10;1.83;;;;;;;;;;5008502;28;20084;-75
2022/05/13 12:49:10;;;;;;;5.60;1.38;;;;;;;;;;5007620;28;20036;-74
2022/05/13 12:52:00;;;;;;;6.45;1.77;;;;;;;;;;5011522;28;20033;-75
2022/05/13 12:54:28;;;;;;;7.97;1.38;;;;;;;;;;5002764;28;20041;-75
2022/05/13 12:56:59;;;;;;;8.80;1.27;;;;;;;;;;5007919;28;20037;-75
2022/05/13 12:59:27;;;;;;;9.35;1.58;;;;;;;;;;5007524;28;20144;-75
2022/05/13 13:01:57;;;;;;;6.60;1.75;;;;;;;;;;5014125;28;20036;-74
2022/05/13 13:04:24;;;;;;;7.13;1.85;;;;;;;;;;5012057;28;20364;-74
2022/05/13 13:06:51;;;;;;;7.10;2.05;;;;;;;;;;5010219;28;20037;-75
2022/05/13 13:09:20;;;;;;;7.88;1.70;;;;;;;;;;5016320;28;20048;-75
2022/05/13 13:11:50;;;;;;;6.53;1.75;;;;;;;;;;5005230;28;20120;-75
2022/05/13 13:14:18;;;;;;;5.93;1.60;;;;;;;;;;5009095;28;20623;-75
2022/05/13 13:16:47;;;;;;;6.22;1.52;;;;;;;;;;5010987;28;20045;-74
2022/05/13 13:19:20;;;;;;;6.57;1.38;;;;;;;;;;5008966;28;20033;-75
2022/05/13 13:21:46;;;;;;;8.07;1.40;;;;;;;;;;5007702;28;20033;-75
2022/05/13 13:24:19;;;;;;;10.32;1.77;;;;;;;;;;5009455;28;20072;-74
2022/05/13 13:26:50;;;;;;;9.85;1.45;;;;;;;;;;5010053;28;20062;-75
2022/05/13 13:29:19;;;;;;;8.02;1.63;;;;;;;;;;5015661;28;20484;-75
2022/05/13 13:31:48;;;;;;;7.28;1.92;;;;;;;;;;5010840;28;20108;-74
2022/05/13 13:34:31;;;;;;;10.00;2.03;;;;;;;;;;5010355;28;20037;-75
2022/05/13 13:36:58;;;;;;;8.77;1.90;;;;;;;;;;5018295;28;20030;-75
2022/05/13 13:39:27;;;;;;;5.70;1.90;;;;;;;;;;5017790;28;20107;-75
2022/05/13 13:42:05;;;;;;;7.15;1.50;;;;;;;;;;5016881;28;20034;-75
2022/05/13 13:44:31;;;;;;;7.13;1.67;;;;;;;;;;5013405;28;20033;-75
2022/05/13 13:46:57;;;;;;;6.13;1.45;;;;;;;;;;5013795;28;20817;-75
2022/05/13 13:49:28;;;;;;;8.73;1.70;;;;;;;;;;5014304;28;20133;-74
2022/05/13 13:51:59;;;;;;;7.95;1.63;;;;;;;;;;5011840;28;20037;-74
2022/05/13 13:54:36;;;;;;;8.57;1.70;;;;;;;;;;5014628;28;20041;-74
2022/05/13 13:57:05;;;;;;;5.60;1.70;;;;;;;;;;5013504;28;20803;-74
2022/05/13 13:59:50;;;;;;;8.23;2.05;;;;;;;;;;5014081;28;20029;-74
2022/05/13 14:02:31;;;;;;;5.80;1.80;;;;;;;;;;5017395;28;20044;-75
2022/05/13 14:04:57;;;;;;;9.57;1.88;;;;;;;;;;5013582;28;20580;-74
2022/05/13 14:07:23;;;;;;;4.95;1.60;;;;;;;;;;4996297;28;20483;-75
2022/05/13 14:09:51;;;;;;;6.38;1.35;;;;;;;;;;5011615;28;20041;-75
2022/05/13 14:12:20;;;;;;;6.25;2.10;;;;;;;;;;5010822;28;20038;-74
2022/05/13 14:14:49;;;;;;;7.93;2.03;;;;;;;;;;5011652;28;20032;-75
2022/05/13 14:17:19;;;;;;;8.43;2.28;;;;;;;;;;5012774;28;20041;-74
2022/05/13 14:19:52;;;;;;;6.45;1.50;;;;;;;;;;5012806;28;20779;-75
2022/05/13 14:22:20;;;;;;;9.57;1.85;;;;;;;;;;5013395;28;20029;-75
2022/05/13 14:24:47;;;;;;;8.82;2.20;;;;;;;;;;5015834;28;20029;-75
2022/05/13 14:27:21;;;;;;;10.88;2.00;;;;;;;;;;5016895;28;20054;-74
2022/05/13 14:29:47;;;;;;;12.13;1.73;;;;;;;;;;5013194;28;20029;-75
2022/05/13 14:32:15;;;;;;;7.68;1.70;;;;;;;;;;5014562;28;20044;-74
2022/05/13 14:34:42;;;;;;;8.52;1.90;;;;;;;;;;5013952;28;20085;-75
2022/05/13 14:37:12;;;;;;;6.72;1.65;;;;;;;;;;5009137;28;20030;-75
2022/05/13 14:39:49;;;;;;;7.40;2.17;;;;;;;;;;5014795;28;20621;-75
2022/05/13 14:42:17;;;;;;;9.80;2.35;;;;;;;;;;5015821;28;20470;-75
2022/05/13 14:44:51;;;;;;;9.93;2.40;;;;;;;;;;5009637;28;20033;-75
2022/05/13 14:47:38;;;;;;;6.93;1.92;;;;;;;;;;5008990;28;20065;-75
2022/05/13 14:50:10;;;;;;;6.25;1.90;;;;;;;;;;5015146;28;20037;-74
2022/05/13 14:52:43;;;;;;;6.10;2.20;;;;;;;;;;5014520;28;20142;-75
2022/05/13 14:55:24;;;;;;;7.20;1.83;;;;;;;;;;5017857;28;20076;-75
2022/05/13 14:57:51;;;;;;;5.97;1.65;;;;;;;;;;5011821;28;20048;-75
2022/05/13 15:00:20;;;;;;;8.50;2.30;;;;;;;;;;5012385;28;20142;-75
2022/05/13 15:02:55;;;;;;;10.13;1.90;;;;;;;;;;5009012;28;20018;-74
2022/05/13 15:05:39;;;;;;;8.05;1.88;;;;;;;;;;5014656;28;20041;-75
2022/05/13 15:08:25;;;;;;;6.38;1.60;;;;;;;;;;5011364;28;20373;-75
2022/05/13 15:10:51;;;;;;;8.68;2.10;;;;;;;;;;5015699;28;20049;-75
2022/05/13 15:13:17;;;;;;;13.25;1.90;;;;;;;;;;5011436;28;20617;-75
2022/05/13 15:15:43;;;;;;;8.63;1.80;;;;;;;;;;5016317;28;20103;-75
2022/05/13 15:18:16;;;;;;;9.82;1.92;;;;;;;;;;5008996;28;20045;-75
2022/05/13 15:20:42;;;;;;;6.75;1.80;;;;;;;;;;5011358;28;20065;-74
2022/05/13 15:23:08;;;;;;;10.25;2.17;;;;;;;;;;5013132;28;20030;-74